Time;durP1;ratioP1;P1;durP2;ratioP2;P2;SDS_P1;SDS_P2;PMS_P1;PMS_P2;Temp;Humidity;BMP_temperature;BMP_pressure;BME280_temperature;BME280_humidity;BME280_pressure;Samples;Min_cycle;Max_cycle;Signal;HPM_P1;HPM_P2
2022/09/25 00:00:29;;;;;;;8.52;2.33;;;9.90;99.90;;;;;;5014972;28;20053;-71
2022/09/25 00:02:55;;;;;;;10.48;2.45;;;9.90;99.90;;;;;;5014480;28;20527;-72
2022/09/25 00:05:21;;;;;;;12.70;2.40;;;9.90;99.90;;;;;;5016102;28;20034;-71
2022/09/25 00:07:46;;;;;;;13.00;2.50;;;9.90;99.90;;;;;;5009445;28;20042;-72
2022/09/25 00:10:12;;;;;;;9.93;1.90;;;9.90;99.90;;;;;;5021585;28;20747;-73
2022/09/25 00:12:38;;;;;;;10.65;2.17;;;10.00;99.90;;;;;;5017575;28;20550;-71
2022/09/25 00:15:05;;;;;;;10.07;2.13;;;9.80;99.90;;;;;;5018948;28;20034;-73
2022/09/25 00:17:32;;;;;;;8.27;2.00;;;9.80;99.90;;;;;;5015567;28;20125;-72
2022/09/25 00:19:58;;;;;;;10.70;2.30;;;9.80;99.90;;;;;;5017204;28;20400;-72
2022/09/25 00:22:25;;;;;;;12.32;2.10;;;9.70;99.90;;;;;;5013833;28;20041;-73
2022/09/25 00:24:50;;;;;;;8.98;1.90;;;9.70;99.90;;;;;;5003864;28;20060;-72
2022/09/25 00:27:18;;;;;;;7.63;1.98;;;9.70;99.90;;;;;;5013391;28;20033;-73
2022/09/25 00:29:44;;;;;;;9.15;2.10;;;9.70;99.90;;;;;;5021545;28;20185;-72
2022/09/25 00:32:11;;;;;;;9.55;2.17;;;9.70;99.90;;;;;;5018794;28;20041;-72
2022/09/25 00:34:38;;;;;;;9.18;2.28;;;9.60;99.90;;;;;;5026551;28;20049;-73
2022/09/25 00:37:04;;;;;;;9.88;2.00;;;9.60;99.90;;;;;;5022442;28;20122;-73
2022/09/25 00:39:31;;;;;;;13.75;2.50;;;9.60;99.90;;;;;;5020179;28;20042;-72
2022/09/25 00:41:57;;;;;;;12.13;2.50;;;9.60;99.90;;;;;;5019737;28;20042;-73
2022/09/25 00:44:47;;;;;;;11.40;2.67;;;9.60;99.90;;;;;;5024074;28;20452;-72
2022/09/25 00:47:21;;;;;;;10.90;2.38;;;9.60;99.90;;;;;;5021603;28;20086;-72
2022/09/25 00:49:50;;;;;;;11.48;2.25;;;9.10;99.90;;;;;;5020107;28;20523;-72
2022/09/25 00:52:17;;;;;;;8.02;2.20;;;9.60;99.90;;;;;;5019829;28;20077;-72
2022/09/25 00:55:01;;;;;;;8.88;2.28;;;9.70;99.90;;;;;;5011406;28;20118;-72
2022/09/25 00:57:32;;;;;;;10.07;1.98;;;9.60;99.90;;;;;;5011678;28;20044;-72
2022/09/25 01:00:05;;;;;;;10.45;2.60;;;9.60;99.90;;;;;;5005338;28;20620;-72
2022/09/25 01:02:38;;;;;;;9.30;2.10;;;9.60;99.90;;;;;;5008865;28;20408;-72
2022/09/25 01:05:16;;;;;;;10.13;2.47;;;9.60;99.90;;;;;;5023919;28;20050;-73
2022/09/25 01:07:46;;;;;;;10.63;2.25;;;9.60;99.90;;;;;;5017319;28;20069;-73
2022/09/25 01:10:13;;;;;;;13.60;2.70;;;9.50;99.90;;;;;;5009082;28;20038;-73
2022/09/25 01:12:43;;;;;;;11.48;2.70;;;10.80;99.90;;;;;;4996767;28;20046;-71
2022/09/25 01:15:12;;;;;;;10.80;2.00;;;9.50;99.90;;;;;;5009934;28;20037;-71
2022/09/25 01:17:55;;;;;;;8.13;1.92;;;9.50;99.90;;;;;;5015447;28;20076;-73
2022/09/25 01:20:20;;;;;;;;;;;9.50;99.90;;;;;;5009798;28;20531;-72
2022/09/25 01:22:58;;;;;;;9.45;2.20;;;9.50;99.90;;;;;;5026718;28;19933;-72
2022/09/25 01:25:59;;;;;;;10.13;2.28;;;9.50;99.90;;;;;;5013533;28;20061;-71
2022/09/25 01:28:49;;;;;;;10.05;2.10;;;9.50;99.90;;;;;;5017452;28;20120;-73
2022/09/25 01:31:49;;;;;;;7.07;1.98;;;9.50;99.90;;;;;;5019479;28;20044;-73
2022/09/25 01:34:25;;;;;;;9.40;2.10;;;9.50;99.90;;;;;;5009430;28;20436;-73
2022/09/25 01:37:02;;;;;;;8.18;2.10;;;9.40;99.90;;;;;;4998524;28;20042;-73
2022/09/25 01:39:33;;;;;;;6.35;1.90;;;9.40;99.90;;;;;;5009206;28;20534;-72
2022/09/25 01:42:10;;;;;;;11.85;2.05;;;9.40;99.90;;;;;;5005403;28;20115;-72
2022/09/25 01:44:43;;;;;;;8.75;2.10;;;9.40;99.90;;;;;;4998751;28;20052;-72
2022/09/25 01:47:14;;;;;;;7.70;2.17;;;9.40;99.90;;;;;;5021206;28;20045;-73
2022/09/25 01:49:47;;;;;;;11.23;2.30;;;9.40;99.90;;;;;;5015363;28;20044;-72
2022/09/25 01:52:16;;;;;;;7.90;2.10;;;9.40;99.90;;;;;;4994170;28;20044;-72
2022/09/25 01:54:53;;;;;;;10.20;2.00;;;9.40;99.90;;;;;;5021245;28;20163;-73
2022/09/25 01:57:35;;;;;;;10.55;2.42;;;9.40;99.90;;;;;;5021328;28;20048;-73
2022/09/25 02:00:07;;;;;;;9.77;2.20;;;9.30;99.90;;;;;;5013425;28;20388;-74
2022/09/25 02:02:45;;;;;;;9.00;2.03;;;9.40;99.90;;;;;;5015296;28;20052;-72
2022/09/25 02:05:30;;;;;;;10.70;2.10;;;8.40;99.90;;;;;;5022956;28;20037;-72
2022/09/25 02:08:02;;;;;;;10.40;2.03;;;9.30;99.90;;;;;;5016341;28;20042;-72
2022/09/25 02:10:36;;;;;;;11.05;2.10;;;9.30;99.90;;;;;;5022280;28;20236;-73
2022/09/25 02:13:09;;;;;;;8.25;1.98;;;9.30;99.90;;;;;;5010415;28;20038;-73
2022/09/25 02:15:56;;;;;;;11.43;2.33;;;9.30;99.90;;;;;;5021185;28;20037;-72
2022/09/25 02:21:19;;;;;;;7.47;1.80;;;9.30;99.90;;;;;;5018076;28;20045;-72
2022/09/25 02:24:03;;;;;;;12.25;2.20;;;9.20;99.90;;;;;;5026034;28;20045;-73
2022/09/25 02:26:31;;;;;;;10.75;2.00;;;9.20;99.90;;;;;;5019609;28;20044;-71
2022/09/25 02:28:58;;;;;;;7.15;2.17;;;9.20;99.90;;;;;;5016450;28;20124;-73
2022/09/25 02:31:39;;;;;;;8.55;2.15;;;9.10;99.90;;;;;;5020376;28;20033;-72
2022/09/25 02:34:05;;;;;;;9.40;2.17;;;9.10;99.90;;;;;;5017955;28;20042;-73
2022/09/25 02:36:32;;;;;;;13.18;2.58;;;9.20;99.90;;;;;;4999185;28;20041;-72
2022/09/25 02:39:01;;;;;;;7.45;2.10;;;9.10;99.90;;;;;;5013198;28;20034;-72
2022/09/25 02:41:51;;;;;;;9.15;2.30;;;9.10;99.90;;;;;;5021123;28;20265;-73
2022/09/25 02:44:42;;;;;;;10.73;2.10;;;9.10;99.90;;;;;;5012323;28;20518;-72
2022/09/25 02:47:42;;;;;;;8.43;2.15;;;9.00;99.90;;;;;;5027677;28;20050;-72
2022/09/25 02:50:22;;;;;;;8.00;1.90;;;9.00;99.90;;;;;;5016622;28;20136;-72
2022/09/25 02:53:04;;;;;;;9.18;1.92;;;10.40;99.90;;;;;;5013293;28;20060;-72
2022/09/25 02:55:42;;;;;;;9.20;2.10;;;9.00;99.90;;;;;;5017490;28;20045;-72
2022/09/25 02:58:20;;;;;;;10.20;2.22;;;8.90;99.90;;;;;;5009372;28;20029;-73
2022/09/25 03:00:49;;;;;;;11.40;2.05;;;9.00;99.90;;;;;;5019706;28;20082;-73
2022/09/25 03:03:18;;;;;;;8.52;2.15;;;8.90;99.90;;;;;;5020405;28;20100;-73
2022/09/25 03:05:49;;;;;;;12.63;2.50;;;8.90;99.90;;;;;;5026156;28;20045;-73
2022/09/25 03:11:00;;;;;;;7.15;1.90;;;9.00;99.90;;;;;;5022264;28;20058;-72
2022/09/25 03:13:30;;;;;;;10.82;2.30;;;8.90;99.90;;;;;;5024959;28;20061;-72
2022/09/25 03:16:00;;;;;;;8.70;2.20;;;8.90;99.90;;;;;;5010729;28;20052;-72
2022/09/25 03:18:27;;;;;;;8.82;2.00;;;8.90;99.90;;;;;;5016799;28;20132;-73
2022/09/25 03:20:53;;;;;;;9.07;2.08;;;8.90;99.90;;;;;;4990042;28;20531;-72
2022/09/25 03:23:23;;;;;;;12.32;2.38;;;8.90;99.90;;;;;;5015258;28;20037;-72
2022/09/25 03:25:49;;;;;;;7.20;1.92;;;9.00;99.90;;;;;;5020827;28;20095;-73
2022/09/25 03:28:14;;;;;;;10.30;2.30;;;8.90;99.90;;;;;;5025569;28;20121;-72
2022/09/25 03:30:40;;;;;;;10.13;2.33;;;9.00;99.90;;;;;;5013425;28;20124;-72
2022/09/25 03:33:08;;;;;;;6.90;2.00;;;9.40;99.90;;;;;;4985745;28;20099;-73
2022/09/25 03:35:35;;;;;;;9.38;2.20;;;9.00;99.90;;;;;;5022157;28;20042;-72
2022/09/25 03:38:01;;;;;;;8.52;2.00;;;9.00;99.90;;;;;;5006734;28;20029;-72
2022/09/25 03:40:26;;;;;;;8.75;2.20;;;9.00;99.90;;;;;;5011869;28;20450;-73
2022/09/25 03:42:52;;;;;;;6.82;1.98;;;9.00;99.90;;;;;;5020094;28;20791;-73
2022/09/25 03:45:18;;;;;;;13.00;2.33;;;9.00;99.90;;;;;;5036608;28;20455;-72
2022/09/25 03:47:44;;;;;;;9.05;2.10;;;9.00;99.90;;;;;;5021112;28;20450;-73
2022/09/25 03:50:10;;;;;;;8.30;1.98;;;9.30;99.90;;;;;;5013125;28;20053;-73
2022/09/25 03:52:36;;;;;;;10.00;2.20;;;9.00;99.90;;;;;;5028068;28;20029;-72
2022/09/25 03:55:02;;;;;;;6.80;1.73;;;9.00;99.90;;;;;;5012121;28;20047;-73
2022/09/25 03:57:30;;;;;;;7.40;2.03;;;9.00;99.90;;;;;;5027993;28;20038;-75
2022/09/25 04:00:00;;;;;;;7.70;2.10;;;8.80;99.90;;;;;;5014326;28;20085;-73
2022/09/25 04:02:27;;;;;;;7.43;2.05;;;8.90;99.90;;;;;;5030429;28;20037;-72
2022/09/25 04:04:57;;;;;;;6.50;1.90;;;9.00;99.90;;;;;;5023727;28;20045;-72
2022/09/25 04:07:23;;;;;;;6.90;1.80;;;8.90;99.90;;;;;;4995331;28;20048;-73
2022/09/25 04:09:50;;;;;;;9.25;2.00;;;9.00;99.90;;;;;;5010662;28;20037;-72
2022/09/25 04:12:16;;;;;;;8.38;1.90;;;9.00;99.90;;;;;;5018925;28;20706;-73
2022/09/25 04:14:44;;;;;;;9.15;2.00;;;8.90;99.90;;;;;;5017713;28;20053;-72
2022/09/25 04:17:10;;;;;;;9.07;2.03;;;8.90;99.90;;;;;;5018863;28;20049;-73
2022/09/25 04:19:36;;;;;;;6.63;2.10;;;8.90;99.90;;;;;;5012455;28;20033;-72
2022/09/25 04:22:02;;;;;;;7.85;2.08;;;8.90;99.90;;;;;;5031042;28;20091;-72
2022/09/25 04:27:13;;;;;;;10.15;2.40;;;7.60;99.90;;;;;;5008070;28;20045;-72
2022/09/25 04:29:39;;;;;;;6.82;2.22;;;9.00;99.90;;;;;;5010616;28;20050;-71
2022/09/25 04:34:49;;;;;;;8.73;2.30;;;9.00;99.90;;;;;;5006853;28;20038;-71
2022/09/25 04:37:15;;;;;;;8.73;2.35;;;8.90;99.90;;;;;;5027747;28;20522;-72
2022/09/25 04:39:41;;;;;;;9.00;2.22;;;8.80;99.90;;;;;;4993292;28;20048;-71
2022/09/25 04:42:06;;;;;;;12.82;2.78;;;8.90;99.90;;;;;;5016460;28;20046;-71
2022/09/25 04:44:32;;;;;;;6.03;2.00;;;8.90;99.90;;;;;;5002935;28;20133;-72
2022/09/25 04:46:58;;;;;;;8.00;2.33;;;9.40;99.90;;;;;;4983835;28;20046;-72
2022/09/25 04:49:23;;;;;;;11.35;2.17;;;8.80;99.90;;;;;;5013330;28;20084;-73
2022/09/25 04:51:49;;;;;;;9.73;1.90;;;8.80;99.90;;;;;;5002246;28;20034;-72
2022/09/25 04:54:18;;;;;;;8.82;2.30;;;8.80;99.90;;;;;;5003518;28;20479;-74
2022/09/25 04:56:43;;;;;;;7.78;2.28;;;8.80;99.90;;;;;;5015092;28;20180;-72
2022/09/25 04:59:16;;;;;;;8.80;2.15;;;8.70;99.90;;;;;;5025439;28;20495;-73
2022/09/25 05:01:46;;;;;;;12.65;2.55;;;8.70;99.90;;;;;;5015525;28;20053;-76
2022/09/25 05:04:13;;;;;;;9.77;2.20;;;8.70;99.90;;;;;;5017403;28;20045;-71
2022/09/25 05:06:38;;;;;;;8.60;2.00;;;8.70;99.90;;;;;;5022292;28;20419;-71
2022/09/25 05:09:04;;;;;;;6.78;1.90;;;8.70;99.90;;;;;;5019581;28;20045;-72
2022/09/25 05:11:30;;;;;;;7.70;2.08;;;8.70;99.90;;;;;;5019957;28;20113;-72
2022/09/25 05:13:55;;;;;;;7.72;2.15;;;8.70;99.90;;;;;;5014424;28;20068;-72
2022/09/25 05:16:24;;;;;;;8.00;2.10;;;8.70;99.90;;;;;;5020125;28;20092;-72
2022/09/25 05:18:50;;;;;;;8.65;2.38;;;8.70;99.90;;;;;;5021892;28;20033;-71
2022/09/25 05:21:15;;;;;;;8.93;2.20;;;8.60;99.90;;;;;;5017944;28;20518;-72
2022/09/25 05:23:41;;;;;;;10.73;2.35;;;8.60;99.90;;;;;;5000063;28;20037;-73
2022/09/25 05:26:08;;;;;;;9.80;2.42;;;8.70;99.90;;;;;;5016595;28;20106;-72
2022/09/25 05:28:33;;;;;;;11.50;2.63;;;8.70;99.90;;;;;;5018903;28;20085;-71
2022/09/25 05:31:04;;;;;;;8.10;2.10;;;8.70;99.90;;;;;;5010603;28;20077;-72
2022/09/25 05:33:34;;;;;;;8.45;2.25;;;8.70;99.90;;;;;;5001873;28;20053;-73
2022/09/25 05:36:05;;;;;;;12.05;2.25;;;8.70;99.90;;;;;;5001306;28;20099;-72
2022/09/25 05:38:33;;;;;;;8.98;2.13;;;8.70;99.90;;;;;;5006436;28;20068;-72
2022/09/25 05:41:06;;;;;;;9.85;2.30;;;8.70;99.90;;;;;;5023901;28;20045;-72
2022/09/25 05:43:33;;;;;;;8.15;2.13;;;8.70;99.90;;;;;;5013534;28;20105;-72
2022/09/25 05:45:59;;;;;;;9.60;2.05;;;8.70;99.90;;;;;;4986922;28;20121;-72
2022/09/25 05:48:25;;;;;;;9.02;2.42;;;8.70;99.90;;;;;;4990642;28;20056;-73
2022/09/25 05:50:56;;;;;;;6.65;2.00;;;8.70;99.90;;;;;;5015123;28;20096;-73
2022/09/25 05:53:22;;;;;;;8.88;2.15;;;8.70;99.90;;;;;;5004559;28;20037;-73
2022/09/25 05:55:52;;;;;;;9.20;2.45;;;8.70;99.90;;;;;;4999014;28;20174;-72
2022/09/25 05:58:18;;;;;;;7.55;2.13;;;8.80;99.90;;;;;;5018607;28;20049;-71
2022/09/25 06:00:44;;;;;;;9.05;2.60;;;8.70;99.90;;;;;;5017669;28;20477;-71
2022/09/25 06:03:10;;;;;;;7.97;2.08;;;8.80;99.90;;;;;;5016834;28;20408;-72
2022/09/25 06:05:37;;;;;;;11.60;2.40;;;8.80;99.90;;;;;;4999041;28;20262;-72
2022/09/25 06:08:03;;;;;;;10.05;2.20;;;8.80;99.90;;;;;;5012605;28;20780;-71
2022/09/25 06:10:29;;;;;;;9.57;2.20;;;8.90;99.90;;;;;;5006286;28;20048;-72
2022/09/25 06:13:02;;;;;;;12.25;2.20;;;9.40;99.90;;;;;;5012311;28;20111;-72
2022/09/25 06:15:36;;;;;;;6.07;1.90;;;9.00;99.90;;;;;;5001975;28;20045;-72
2022/09/25 06:18:08;;;;;;;8.80;2.08;;;9.10;99.90;;;;;;5022752;28;20125;-71
2022/09/25 06:20:35;;;;;;;8.23;2.17;;;9.20;99.90;;;;;;4975127;28;20398;-72
2022/09/25 06:23:01;;;;;;;11.55;2.30;;;9.30;99.90;;;;;;5026411;28;20137;-72
2022/09/25 06:25:29;;;;;;;10.27;2.40;;;9.30;99.90;;;;;;5017722;28;20129;-73
2022/09/25 06:28:05;;;;;;;10.88;2.20;;;9.40;99.90;;;;;;5024871;28;20041;-72
2022/09/25 06:30:33;;;;;;;8.77;2.22;;;9.50;99.90;;;;;;5025905;28;20042;-71
2022/09/25 06:33:13;;;;;;;9.10;2.20;;;9.50;99.90;;;;;;5017403;28;20085;-71
2022/09/25 06:35:44;;;;;;;8.55;2.03;;;9.60;99.90;;;;;;5015316;28;20041;-73
2022/09/25 06:38:10;;;;;;;9.25;2.20;;;9.70;99.90;;;;;;5024141;28;20040;-73
2022/09/25 06:40:39;;;;;;;8.98;2.17;;;9.80;99.90;;;;;;4991584;28;20391;-72
2022/09/25 06:43:10;;;;;;;9.75;2.20;;;9.90;99.90;;;;;;5003577;28;20069;-72
2022/09/25 06:45:40;;;;;;;8.18;2.10;;;10.00;99.90;;;;;;5014915;28;20032;-73
2022/09/25 06:48:11;;;;;;;8.10;2.25;;;10.00;99.90;;;;;;5028077;28;20034;-72
2022/09/25 06:50:45;;;;;;;7.05;2.20;;;10.10;99.90;;;;;;4999299;28;20120;-73
2022/09/25 06:53:15;;;;;;;8.75;2.25;;;10.20;99.90;;;;;;5022025;28;20116;-73
2022/09/25 06:55:44;;;;;;;10.20;2.22;;;10.20;99.90;;;;;;5018004;28;20037;-72
2022/09/25 06:58:12;;;;;;;8.50;2.30;;;10.30;99.90;;;;;;4991777;28;20496;-73
2022/09/25 07:00:49;;;;;;;8.07;2.30;;;10.40;99.90;;;;;;4998314;28;20065;-72
2022/09/25 07:06:05;;;;;;;8.23;2.00;;;10.60;99.90;;;;;;5015778;28;20033;-73
2022/09/25 07:08:30;;;;;;;7.30;2.15;;;10.70;99.90;;;;;;5024095;28;20042;-73
2022/09/25 07:10:57;;;;;;;8.85;2.10;;;10.80;99.90;;;;;;5021311;28;20048;-73
2022/09/25 07:13:26;;;;;;;8.65;2.30;;;11.00;99.90;;;;;;5020104;28;20030;-73
2022/09/25 07:16:26;;;;;;;8.60;2.00;;;11.00;99.90;;;;;;5019510;28;20053;-73
2022/09/25 07:19:03;;;;;;;7.72;2.00;;;11.10;99.90;;;;;;5016406;28;20057;-73
2022/09/25 07:21:31;;;;;;;8.15;1.90;;;11.20;99.90;;;;;;5013795;28;20045;-73
2022/09/25 07:23:57;;;;;;;8.20;1.90;;;11.30;99.90;;;;;;5025921;28;20034;-73
2022/09/25 07:26:27;;;;;;;7.28;2.00;;;11.50;99.90;;;;;;5021350;28;20033;-72
2022/09/25 07:28:59;;;;;;;11.18;2.40;;;11.60;99.90;;;;;;5009893;28;21061;-72
2022/09/25 07:31:27;;;;;;;11.73;2.15;;;11.80;99.90;;;;;;5022966;28;20037;-73
2022/09/25 07:33:53;;;;;;;10.93;1.88;;;11.90;99.90;;;;;;5015930;28;20051;-72
2022/09/25 07:36:22;;;;;;;9.13;1.80;;;12.00;99.90;;;;;;5026572;28;20496;-72
2022/09/25 07:38:54;;;;;;;10.45;2.10;;;12.10;99.90;;;;;;5024025;28;20046;-72
2022/09/25 07:41:22;;;;;;;8.95;2.30;;;12.30;99.90;;;;;;5009408;28;20045;-72
2022/09/25 07:43:58;;;;;;;6.95;1.55;;;12.40;99.90;;;;;;5025097;28;20046;-71
2022/09/25 07:46:25;;;;;;;7.88;1.70;;;12.50;99.90;;;;;;5030619;28;20045;-72
2022/09/25 07:48:51;;;;;;;7.97;1.70;;;12.60;99.90;;;;;;5036826;28;20046;-71
2022/09/25 07:51:21;;;;;;;8.00;1.70;;;12.80;99.90;;;;;;5014257;28;20488;-73
2022/09/25 07:53:47;;;;;;;9.43;2.05;;;12.90;99.90;;;;;;5027630;28;20566;-73
2022/09/25 07:56:13;;;;;;;8.68;1.90;;;13.00;99.90;;;;;;5031635;28;20044;-72
2022/09/25 07:58:40;;;;;;;8.50;1.70;;;13.10;99.90;;;;;;5030792;28;20049;-73
2022/09/25 08:01:09;;;;;;;8.00;1.58;;;13.10;99.90;;;;;;5013638;28;20053;-73
2022/09/25 08:03:35;;;;;;;6.40;1.95;;;13.30;99.90;;;;;;5028526;28;20512;-72
2022/09/25 08:06:08;;;;;;;10.65;1.83;;;13.40;99.90;;;;;;5030458;28;20095;-73
2022/09/25 08:08:34;;;;;;;6.45;1.48;;;13.50;99.90;;;;;;5020463;28;20045;-72
2022/09/25 08:11:10;;;;;;;9.95;1.80;;;13.60;99.90;;;;;;5001079;28;20053;-72
2022/09/25 08:13:39;;;;;;;8.52;1.73;;;13.70;99.90;;;;;;5027680;28;20451;-72
2022/09/25 08:16:12;;;;;;;7.55;1.73;;;13.80;99.90;;;;;;5018597;28;20485;-71
2022/09/25 08:18:40;;;;;;;6.80;1.65;;;13.80;99.90;;;;;;4995159;28;21024;-71
2022/09/25 08:21:06;;;;;;;10.43;1.85;;;14.30;99.90;;;;;;5015764;28;20395;-72
2022/09/25 08:23:32;;;;;;;7.50;1.58;;;14.00;99.90;;;;;;5008534;28;20128;-72
2022/09/25 08:25:59;;;;;;;16.67;2.10;;;14.10;99.90;;;;;;4993339;28;20129;-72
2022/09/25 08:28:25;;;;;;;6.15;1.42;;;14.10;99.90;;;;;;5009537;28;20113;-72
2022/09/25 08:30:51;;;;;;;8.20;1.83;;;14.20;99.90;;;;;;5000313;28;20112;-72
2022/09/25 08:33:17;;;;;;;7.57;1.60;;;14.30;99.90;;;;;;5007059;28;20034;-72
2022/09/25 08:35:43;;;;;;;7.00;1.52;;;14.50;99.90;;;;;;4998846;28;20032;-73
2022/09/25 08:38:11;;;;;;;9.05;1.48;;;14.60;99.90;;;;;;5017003;28;20472;-71
2022/09/25 08:40:50;;;;;;;7.88;1.55;;;14.70;99.90;;;;;;5019481;28;20053;-73
2022/09/25 08:43:20;;;;;;;10.52;1.90;;;14.80;99.90;;;;;;5017227;28;20060;-72
2022/09/25 08:51:33;;;;;;;7.47;1.77;;;15.00;99.90;;;;;;5027174;28;20048;-72
2022/09/25 08:54:00;;;;;;;6.75;1.42;;;15.20;99.90;;;;;;5016357;28;20041;-71
2022/09/25 08:56:31;;;;;;;5.50;1.48;;;15.40;99.90;;;;;;5005530;28;20086;-72
2022/09/25 08:59:27;;;;;;;8.82;1.70;;;15.50;99.90;;;;;;5002698;28;20507;-72
2022/09/25 09:01:59;;;;;;;8.52;1.58;;;15.50;99.90;;;;;;5008638;28;20171;-71
2022/09/25 09:04:32;;;;;;;5.68;1.45;;;15.30;99.90;;;;;;5003816;28;20111;-72
2022/09/25 09:07:09;;;;;;;;;;;15.10;99.90;;;;;;4999660;28;20053;-72
2022/09/25 09:09:48;;;;;;;6.10;1.38;;;14.80;99.90;;;;;;5021311;28;19921;-72
2022/09/25 09:12:22;;;;;;;5.25;1.52;;;14.50;99.90;;;;;;5023193;28;20037;-72
2022/09/25 09:14:53;;;;;;;4.53;1.30;;;14.30;99.90;;;;;;5008745;28;20411;-72
2022/09/25 09:17:25;;;;;;;3.70;1.10;;;14.20;99.90;;;;;;5000418;28;20037;-73
2022/09/25 09:19:58;;;;;;;5.63;1.35;;;14.10;99.90;;;;;;4994635;28;20081;-71
2022/09/25 09:22:36;;;;;;;6.93;1.52;;;14.10;99.90;;;;;;5010339;28;21048;-73
2022/09/25 09:25:14;;;;;;;5.13;1.30;;;14.20;99.90;;;;;;5008923;28;20041;-72
2022/09/25 09:28:01;;;;;;;4.35;1.30;;;14.30;99.90;;;;;;5015931;28;20480;-72
2022/09/25 09:30:35;;;;;;;4.00;1.10;;;14.40;99.90;;;;;;5018906;28;20143;-71
2022/09/25 09:33:15;;;;;;;5.40;1.20;;;14.60;99.90;;;;;;5014139;28;20093;-72
2022/09/25 09:36:08;;;;;;;5.63;1.40;;;14.30;99.90;;;;;;5022781;28;20038;-72
2022/09/25 09:38:49;;;;;;;5.05;1.27;;;14.20;99.90;;;;;;5001843;28;20057;-72
2022/09/25 09:41:49;;;;;;;6.30;1.35;;;14.00;99.90;;;;;;5023315;28;20256;-71
2022/09/25 09:44:29;;;;;;;5.28;1.10;;;14.00;99.90;;;;;;5017230;28;20116;-72
2022/09/25 09:47:07;;;;;;;5.50;1.30;;;13.90;99.90;;;;;;5015242;28;20040;-72
2022/09/25 09:49:43;;;;;;;5.18;1.27;;;13.70;99.90;;;;;;5019290;28;20045;-72
2022/09/25 09:52:35;;;;;;;7.20;1.45;;;13.60;99.90;;;;;;5016230;28;20065;-71
2022/09/25 09:55:21;;;;;;;3.90;1.20;;;13.50;99.90;;;;;;5001566;28;20176;-72
2022/09/25 09:57:52;;;;;;;6.47;1.55;;;13.30;99.90;;;;;;5022408;28;20330;-73
2022/09/25 10:00:20;;;;;;;3.67;1.23;;;13.30;99.90;;;;;;5021510;28;20057;-74
2022/09/25 10:03:16;;;;;;;4.03;1.25;;;13.30;99.90;;;;;;4999752;28;20049;-73
2022/09/25 10:05:48;;;;;;;5.00;1.35;;;13.30;99.90;;;;;;5000855;28;20464;-73
2022/09/25 10:08:15;;;;;;;6.35;1.60;;;13.30;99.90;;;;;;4998789;28;20085;-72
2022/09/25 10:10:50;;;;;;;8.32;1.80;;;13.40;99.90;;;;;;5024212;28;20124;-73
2022/09/25 10:13:26;;;;;;;8.13;1.77;;;13.50;99.90;;;;;;5019865;28;20045;-73
2022/09/25 10:16:00;;;;;;;8.70;1.95;;;13.60;99.90;;;;;;5017575;28;20104;-73
2022/09/25 10:18:35;;;;;;;5.22;1.30;;;13.70;99.90;;;;;;5019562;28;20103;-74
2022/09/25 10:21:09;;;;;;;6.53;1.50;;;13.80;99.90;;;;;;5026146;28;20440;-74
2022/09/25 10:23:57;;;;;;;4.78;1.30;;;13.80;99.90;;;;;;5024356;28;20041;-74
2022/09/25 10:26:35;;;;;;;7.35;1.50;;;14.00;99.90;;;;;;5028129;28;20091;-72
2022/09/25 10:29:08;;;;;;;6.60;1.52;;;14.10;99.90;;;;;;5014161;28;20121;-74
2022/09/25 10:31:38;;;;;;;;;;;14.20;99.90;;;;;;5005839;28;20037;-72
2022/09/25 10:34:16;;;;;;;6.95;1.80;;;14.30;99.90;;;;;;5022720;28;19927;-72
2022/09/25 10:36:48;;;;;;;6.32;1.50;;;14.50;99.90;;;;;;5048368;28;20121;-72
2022/09/25 10:39:32;;;;;;;9.13;1.65;;;14.60;99.90;;;;;;5026016;28;20046;-72
2022/09/25 10:41:59;;;;;;;7.05;1.40;;;14.80;99.90;;;;;;5015856;28;20041;-72
2022/09/25 10:44:33;;;;;;;5.72;1.70;;;15.00;99.90;;;;;;5023813;28;20046;-72
2022/09/25 10:50:22;;;;;;;6.18;1.30;;;15.50;99.90;;;;;;5023502;28;20103;-72
2022/09/25 10:52:58;;;;;;;7.40;1.48;;;15.70;99.90;;;;;;5020663;28;20030;-71
2022/09/25 10:55:45;;;;;;;7.40;1.30;;;15.80;99.90;;;;;;5021441;28;20108;-72
2022/09/25 10:58:10;;;;;;;6.03;1.25;;;15.80;99.90;;;;;;5030084;28;20026;-72
2022/09/25 11:00:45;;;;;;;8.63;2.08;;;15.80;99.90;;;;;;5024494;28;20421;-72
2022/09/25 11:03:22;;;;;;;9.10;1.30;;;15.80;99.90;;;;;;5017631;28;20111;-72
2022/09/25 11:05:58;;;;;;;7.75;1.50;;;15.70;99.90;;;;;;5018529;28;20128;-72
2022/09/25 11:08:28;;;;;;;7.20;1.50;;;15.70;99.90;;;;;;5029817;28;20046;-73
2022/09/25 11:10:57;;;;;;;4.53;1.23;;;15.70;99.90;;;;;;5028236;28;20489;-70
2022/09/25 11:13:32;;;;;;;6.20;1.20;;;15.70;99.90;;;;;;5019752;28;20044;-72
2022/09/25 11:16:00;;;;;;;4.07;1.20;;;15.70;99.90;;;;;;5025452;28;20048;-72
2022/09/25 11:18:43;;;;;;;6.18;1.52;;;15.60;99.90;;;;;;5023502;28;20033;-71
2022/09/25 11:21:32;;;;;;;4.05;1.23;;;15.50;99.90;;;;;;5020804;28;20117;-73
2022/09/25 11:24:17;;;;;;;4.72;1.20;;;15.60;99.90;;;;;;5025460;28;20045;-72
2022/09/25 11:27:07;;;;;;;4.72;1.30;;;15.80;99.90;;;;;;5025789;28;20048;-73
2022/09/25 11:29:45;;;;;;;3.70;1.10;;;15.80;99.90;;;;;;5022706;28;20049;-71
2022/09/25 11:32:24;;;;;;;2.17;0.82;;;15.80;99.90;;;;;;5013841;28;20382;-72
2022/09/25 11:35:22;;;;;;;3.83;1.00;;;15.80;99.90;;;;;;4998554;28;20399;-72
2022/09/25 11:38:00;;;;;;;2.67;1.13;;;15.90;99.90;;;;;;5021171;28;20049;-71
2022/09/25 11:41:17;;;;;;;1.73;0.68;;;16.10;99.90;;;;;;5028246;28;20302;-71
2022/09/25 11:44:08;;;;;;;6.43;1.23;;;16.20;99.90;;;;;;5023722;28;20099;-72
2022/09/25 11:47:14;;;;;;;6.55;1.20;;;16.40;99.90;;;;;;5016913;28;20445;-72
2022/09/25 11:49:41;;;;;;;6.72;1.50;;;16.40;99.90;;;;;;5021615;28;20099;-72
2022/09/25 11:52:18;;;;;;;5.90;1.25;;;16.40;99.90;;;;;;4989216;28;20117;-72
2022/09/25 11:55:02;;;;;;;6.60;1.40;;;16.40;99.90;;;;;;5022087;28;20045;-71
2022/09/25 11:57:40;;;;;;;;;;;16.20;99.90;;;;;;5016704;28;20034;-71
2022/09/25 12:00:39;;;;;;;6.47;1.33;;;16.10;99.90;;;;;;5009701;28;19922;-71
2022/09/25 12:03:25;;;;;;;3.20;1.10;;;16.10;99.90;;;;;;5029021;28;20988;-73
2022/09/25 12:06:18;;;;;;;8.20;1.50;;;16.10;99.90;;;;;;5025000;28;20040;-71
2022/09/25 12:09:09;;;;;;;4.03;1.10;;;16.10;99.90;;;;;;5029221;28;20121;-71
2022/09/25 12:11:57;;;;;;;4.55;1.27;;;16.10;99.90;;;;;;5003506;28;20034;-73
2022/09/25 12:14:59;;;;;;;5.53;1.30;;;16.30;99.90;;;;;;5025144;28;20047;-72
2022/09/25 12:17:45;;;;;;;4.18;1.10;;;16.40;99.90;;;;;;5050631;28;20489;-72
2022/09/25 12:20:46;;;;;;;4.93;1.40;;;16.50;99.90;;;;;;5003406;28;20084;-72
2022/09/25 12:23:18;;;;;;;5.38;1.30;;;16.50;99.90;;;;;;5014726;28;20057;-71
2022/09/25 12:26:10;;;;;;;5.43;1.30;;;16.50;99.90;;;;;;5022387;28;20560;-71
2022/09/25 12:29:09;;;;;;;6.88;1.42;;;16.30;99.90;;;;;;5016923;28;20049;-71
2022/09/25 12:31:59;;;;;;;5.68;1.40;;;16.30;99.90;;;;;;5023618;28;20056;-72
2022/09/25 12:34:39;;;;;;;7.07;1.23;;;16.30;99.90;;;;;;5020952;28;20386;-72
2022/09/25 12:37:36;;;;;;;7.05;1.50;;;16.30;99.90;;;;;;5024496;28;20087;-72
2022/09/25 12:40:10;;;;;;;6.18;1.30;;;16.20;99.90;;;;;;5025401;28;20496;-72
2022/09/25 12:42:41;;;;;;;8.57;1.40;;;16.00;99.90;;;;;;5009901;28;20136;-73
2022/09/25 12:45:23;;;;;;;6.20;1.30;;;16.00;99.90;;;;;;5026583;28;20645;-72
2022/09/25 12:48:11;;;;;;;6.20;1.17;;;15.90;99.90;;;;;;4997449;28;20040;-72
2022/09/25 12:50:58;;;;;;;6.78;1.45;;;15.90;99.90;;;;;;5017930;28;20389;-74
2022/09/25 12:53:44;;;;;;;7.47;1.30;;;15.80;99.90;;;;;;5022130;28;20045;-71
2022/09/25 12:56:28;;;;;;;6.47;1.60;;;15.90;99.90;;;;;;5018023;28;20045;-72
2022/09/25 12:59:04;;;;;;;6.38;1.50;;;15.90;99.90;;;;;;5017483;28;20511;-71
2022/09/25 13:01:56;;;;;;;6.38;1.52;;;16.10;99.90;;;;;;5015697;28;20123;-71
2022/09/25 13:04:33;;;;;;;6.78;1.40;;;16.10;99.90;;;;;;5003689;28;20053;-71
2022/09/25 13:07:36;;;;;;;6.97;1.52;;;16.20;99.90;;;;;;5013091;28;20228;-72
2022/09/25 13:10:17;;;;;;;8.52;1.85;;;16.20;99.90;;;;;;5007468;28;20188;-74
2022/09/25 13:12:44;;;;;;;5.72;1.63;;;16.30;99.90;;;;;;5018893;28;20049;-72
2022/09/25 13:15:22;;;;;;;3.13;1.00;;;16.40;99.90;;;;;;5015016;28;20046;-71
2022/09/25 13:17:49;;;;;;;5.32;1.30;;;16.50;99.90;;;;;;5008692;28;20038;-72
2022/09/25 13:20:30;;;;;;;5.78;1.40;;;16.50;99.90;;;;;;5011964;28;20052;-72
2022/09/25 13:23:13;;;;;;;3.70;0.93;;;16.50;99.90;;;;;;4997294;28;20049;-72
2022/09/25 13:26:01;;;;;;;6.45;1.27;;;16.40;99.90;;;;;;5019411;28;20056;-72
2022/09/25 13:28:26;;;;;;;7.68;1.60;;;16.30;99.90;;;;;;5010492;28;20387;-73
2022/09/25 13:31:08;;;;;;;3.05;1.00;;;16.20;99.90;;;;;;4999921;28;21122;-72
2022/09/25 13:33:44;;;;;;;5.30;1.33;;;16.20;99.90;;;;;;5012735;28;20397;-72
2022/09/25 13:36:37;;;;;;;4.90;1.10;;;16.20;99.90;;;;;;5016885;28;20478;-71
2022/09/25 13:42:06;;;;;;;7.40;1.45;;;16.10;99.90;;;;;;5009749;28;20044;-73
2022/09/25 13:44:41;;;;;;;7.20;1.10;;;16.20;99.90;;;;;;5007223;28;20405;-72
2022/09/25 13:47:31;;;;;;;6.13;1.48;;;16.40;99.90;;;;;;5012744;28;20461;-73
2022/09/25 13:50:12;;;;;;;6.53;1.08;;;16.60;99.90;;;;;;5008731;28;20041;-71